createdAt,value
2019-01-04T00:04:59.061Z,2.50
2019-01-04T00:07:32.663Z,1.97
2019-01-04T00:10:06.069Z,1.63
2019-01-04T00:12:39.597Z,1.90
2019-01-04T00:15:12.893Z,2.53
2019-01-04T00:17:46.379Z,2.60
2019-01-04T00:20:20.320Z,1.90
2019-01-04T00:22:53.563Z,2.03
2019-01-04T00:25:26.890Z,1.97
2019-01-04T00:28:00.054Z,2.10
2019-01-04T00:30:34.001Z,1.60
2019-01-04T00:33:07.728Z,2.00
2019-01-04T00:35:45.903Z,2.00
2019-01-04T00:38:19.152Z,2.13
2019-01-04T00:40:52.459Z,1.80
2019-01-04T00:43:26.405Z,3.07
2019-01-04T00:45:59.742Z,1.97
2019-01-04T00:48:32.950Z,2.20
2019-01-04T00:51:07.293Z,2.67
2019-01-04T00:53:40.698Z,2.23
2019-01-04T00:57:19.780Z,1.80
2019-01-04T01:01:01.310Z,2.23
2019-01-04T01:04:55.147Z,1.73
2019-01-04T01:08:12.344Z,1.87
2019-01-04T01:12:17.805Z,1.70
2019-01-04T01:15:47.155Z,1.87
2019-01-04T01:19:20.623Z,2.53
2019-01-04T01:22:50.091Z,2.37
2019-01-04T01:26:28.062Z,2.50
2019-01-04T01:29:58.050Z,1.90
2019-01-04T01:33:50.334Z,1.90
2019-01-04T01:37:22.595Z,2.03
2019-01-04T01:41:08.142Z,1.30
2019-01-04T01:44:39.296Z,1.73
2019-01-04T01:47:52.906Z,2.30
2019-01-04T01:51:22.697Z,2.50
2019-01-04T01:53:57.223Z,2.30
2019-01-04T01:56:30.969Z,2.20
2019-01-04T01:59:04.588Z,2.57
2019-01-04T02:01:38.149Z,2.20
2019-01-04T02:04:12.720Z,2.37
2019-01-04T02:06:46.490Z,2.03
2019-01-04T02:09:20.093Z,2.27
2019-01-04T02:11:54.350Z,1.63
2019-01-04T02:14:27.985Z,2.60
2019-01-04T02:17:01.424Z,2.07
2019-01-04T02:19:35.148Z,2.23
2019-01-04T02:22:09.675Z,1.83
2019-01-04T02:24:43.613Z,2.30
2019-01-04T02:27:16.920Z,2.13
2019-01-04T02:29:54.590Z,1.80
2019-01-04T02:32:28.590Z,2.50
2019-01-04T02:35:01.991Z,2.53
2019-01-04T02:37:35.848Z,2.20
2019-01-04T02:40:09.388Z,2.30
2019-01-04T02:42:43.299Z,1.50
2019-01-04T02:45:16.717Z,1.83
2019-01-04T02:47:50.219Z,2.53
2019-01-04T02:50:24.063Z,2.07
2019-01-04T02:52:57.832Z,1.70
2019-01-04T02:55:31.263Z,2.50
2019-01-04T02:58:04.551Z,2.03
2019-01-04T03:00:38.799Z,2.40
2019-01-04T03:03:12.340Z,2.93
2019-01-04T03:05:45.460Z,2.70
2019-01-04T03:08:20.343Z,2.47
2019-01-04T03:10:53.637Z,2.00
2019-01-04T03:13:27.108Z,2.47
2019-01-04T03:16:00.370Z,2.13
2019-01-04T03:18:34.608Z,2.17
2019-01-04T03:21:07.922Z,2.23
2019-01-04T03:23:41.746Z,2.17
2019-01-04T03:26:15.546Z,1.77
2019-01-04T03:28:49.299Z,1.80
2019-01-04T03:31:22.966Z,2.17
2019-01-04T03:33:56.520Z,1.80
2019-01-04T03:36:30.185Z,1.50
2019-01-04T03:39:06.596Z,1.73
2019-01-04T03:41:39.836Z,1.60
2019-01-04T03:44:13.322Z,2.50
2019-01-04T03:46:46.804Z,1.57
2019-01-04T03:49:22.142Z,2.13
2019-01-04T03:51:56.084Z,1.97
2019-01-04T03:54:29.665Z,1.53
2019-01-04T03:57:03.393Z,1.77
2019-01-04T03:59:36.928Z,2.20
2019-01-04T04:02:10.697Z,1.83
2019-01-04T04:04:45.372Z,1.73
2019-01-04T04:07:19.110Z,2.40
2019-01-04T04:09:52.848Z,2.17
2019-01-04T04:12:26.771Z,1.43
2019-01-04T04:15:01.173Z,1.80
2019-01-04T04:17:34.672Z,2.27
2019-01-04T04:20:09.308Z,1.87
2019-01-04T04:22:42.614Z,2.27
2019-01-04T04:25:15.836Z,2.30
2019-01-04T04:27:49.422Z,1.67
2019-01-04T04:30:24.002Z,2.10
2019-01-04T04:32:57.532Z,2.00
2019-01-04T04:35:30.912Z,2.10
2019-01-04T04:38:04.325Z,2.03
2019-01-04T04:40:37.962Z,1.77
2019-01-04T04:43:11.212Z,2.23
2019-01-04T04:45:44.742Z,1.93
2019-01-04T04:48:18.152Z,1.77
2019-01-04T04:50:51.504Z,2.30
2019-01-04T04:53:24.828Z,1.87
2019-01-04T04:55:58.525Z,1.70
2019-01-04T04:58:32.259Z,2.30
2019-01-04T05:01:05.989Z,1.70
2019-01-04T05:03:39.479Z,2.40
2019-01-04T05:06:12.871Z,2.07
2019-01-04T05:08:45.952Z,2.03
2019-01-04T05:11:19.269Z,1.90
2019-01-04T05:13:53.525Z,2.17
2019-01-04T05:16:29.866Z,2.27
2019-01-04T05:19:03.236Z,2.33
2019-01-04T05:21:36.287Z,2.10
2019-01-04T05:24:09.854Z,2.37
2019-01-04T05:26:44.814Z,2.73
2019-01-04T05:29:19.589Z,2.93
2019-01-04T05:31:52.645Z,2.33
2019-01-04T05:34:26.237Z,2.57
2019-01-04T05:36:59.623Z,2.40
2019-01-04T05:39:35.160Z,3.23
2019-01-04T05:42:08.616Z,2.73
2019-01-04T05:44:42.050Z,3.00
2019-01-04T05:47:15.550Z,2.80
2019-01-04T05:49:49.454Z,2.70
2019-01-04T05:52:22.812Z,2.07
2019-01-04T05:54:56.037Z,2.43
2019-01-04T05:57:30.301Z,2.10
2019-01-04T06:00:05.327Z,2.40
2019-01-04T06:02:40.084Z,2.37
2019-01-04T06:05:13.364Z,3.17
2019-01-04T06:07:48.073Z,3.13
2019-01-04T06:10:22.612Z,3.20
2019-01-04T06:12:56.118Z,3.20
2019-01-04T06:15:30.171Z,3.17
2019-01-04T06:18:03.785Z,2.63
2019-01-04T06:20:37.014Z,2.57
2019-01-04T06:23:10.909Z,2.63
2019-01-04T06:25:44.220Z,2.23
2019-01-04T06:28:18.306Z,2.93
2019-01-04T06:30:52.034Z,2.57
2019-01-04T06:33:25.116Z,2.10
2019-01-04T06:35:58.646Z,3.57
2019-01-04T06:38:32.457Z,4.07
2019-01-04T06:41:05.624Z,4.00
2019-01-04T06:43:40.141Z,4.13
2019-01-04T06:46:15.197Z,3.93
2019-01-04T06:48:49.596Z,4.13
2019-01-04T06:51:27.803Z,3.03
2019-01-04T06:53:59.453Z,4.30
2019-01-04T06:56:32.819Z,3.47
2019-01-04T06:59:06.556Z,3.60
2019-01-04T07:01:40.439Z,3.73
2019-01-04T07:04:13.980Z,2.93
2019-01-04T07:06:47.160Z,2.73
2019-01-04T07:09:20.436Z,3.10
2019-01-04T07:11:53.715Z,3.30
2019-01-04T07:14:26.955Z,4.37
2019-01-04T07:17:02.480Z,3.57
2019-01-04T07:19:36.721Z,2.40
2019-01-04T07:22:09.963Z,2.13
2019-01-04T07:24:43.459Z,2.40
2019-01-04T07:27:16.722Z,3.17
2019-01-04T07:29:50.073Z,2.73
2019-01-04T07:32:23.251Z,5.23
2019-01-04T07:34:57.718Z,3.70
2019-01-04T07:37:31.350Z,12.70
2019-01-04T07:40:06.652Z,7.60
2019-01-04T07:42:41.856Z,3.30
2019-01-04T07:45:15.740Z,5.40
2019-01-04T07:47:49.796Z,7.60
2019-01-04T07:50:23.521Z,4.43
2019-01-04T07:52:56.817Z,4.77
2019-01-04T07:55:30.207Z,9.03
2019-01-04T07:58:03.475Z,12.33
2019-01-04T08:00:36.870Z,6.40
2019-01-04T08:03:36.872Z,7.00
2019-01-04T08:06:10.723Z,9.10
2019-01-04T08:08:44.197Z,7.73
2019-01-04T08:11:17.630Z,5.97
2019-01-04T08:13:50.992Z,5.70
2019-01-04T08:16:24.572Z,4.70
2019-01-04T08:18:58.091Z,5.97
2019-01-04T08:21:31.542Z,7.90
2019-01-04T08:24:06.521Z,7.87
2019-01-04T08:26:39.804Z,8.90
2019-01-04T08:29:13.263Z,5.27
2019-01-04T08:31:46.634Z,10.97
2019-01-04T08:34:20.024Z,6.73
2019-01-04T08:36:53.443Z,12.80
2019-01-04T08:39:27.756Z,4.97
2019-01-04T08:42:03.182Z,12.87
2019-01-04T08:44:36.223Z,10.93
2019-01-04T08:47:09.430Z,10.90
2019-01-04T08:49:42.673Z,11.60
2019-01-04T08:52:16.708Z,8.90
2019-01-04T08:54:50.950Z,6.60
2019-01-04T08:57:24.152Z,6.43
2019-01-04T08:59:57.541Z,7.87
2019-01-04T09:02:31.350Z,10.20
2019-01-04T09:05:07.670Z,8.43
2019-01-04T09:07:40.400Z,11.93
2019-01-04T09:10:13.632Z,4.63
2019-01-04T09:12:47.214Z,5.20
2019-01-04T09:15:21.413Z,6.53
2019-01-04T09:17:54.585Z,5.63
2019-01-04T09:20:29.871Z,5.10
2019-01-04T09:23:03.375Z,14.93
2019-01-04T09:25:37.053Z,8.53
2019-01-04T09:28:11.253Z,7.87
2019-01-04T09:30:44.591Z,5.00
2019-01-04T09:33:18.342Z,6.27
2019-01-04T09:35:52.833Z,5.37
2019-01-04T09:38:26.056Z,5.87
2019-01-04T09:41:34.054Z,4.93
2019-01-04T09:44:07.812Z,6.20
2019-01-04T09:46:41.232Z,5.27
2019-01-04T09:49:14.515Z,5.23
2019-01-04T09:51:48.273Z,7.33
2019-01-04T09:54:21.746Z,6.20
2019-01-04T09:56:54.863Z,9.30
2019-01-04T09:59:28.375Z,10.00
2019-01-04T10:02:01.564Z,12.50
2019-01-04T10:04:35.083Z,16.67
2019-01-04T10:07:10.776Z,14.83
2019-01-04T10:09:46.066Z,11.13
2019-01-04T10:12:19.463Z,7.50
2019-01-04T10:14:53.145Z,7.40
2019-01-04T10:17:26.443Z,11.50
2019-01-04T10:19:59.573Z,11.40
2019-01-04T10:22:33.354Z,8.07
2019-01-04T10:25:07.070Z,5.70
2019-01-04T10:27:41.434Z,8.23
2019-01-04T10:30:27.783Z,8.37
2019-01-04T10:33:01.213Z,6.20
2019-01-04T10:35:36.043Z,6.23
2019-01-04T10:38:09.588Z,5.40
2019-01-04T10:40:43.433Z,6.33
2019-01-04T10:43:17.195Z,8.10
2019-01-04T10:45:51.803Z,9.03
2019-01-04T10:48:26.155Z,7.53
2019-01-04T10:50:59.023Z,6.93
2019-01-04T10:53:32.613Z,20.20
2019-01-04T10:56:06.128Z,9.40
2019-01-04T10:58:40.489Z,9.37
2019-01-04T11:01:15.584Z,9.53
2019-01-04T11:03:50.043Z,9.50
2019-01-04T11:06:23.374Z,7.40
2019-01-04T11:08:56.712Z,10.90
2019-01-04T11:11:30.092Z,12.90
2019-01-04T11:14:03.533Z,17.53
2019-01-04T11:16:36.924Z,20.93
2019-01-04T11:19:10.425Z,8.57
2019-01-04T11:21:43.885Z,21.40
2019-01-04T11:25:37.288Z,8.33
2019-01-04T11:28:58.698Z,13.60
2019-01-04T11:32:13.619Z,17.73
2019-01-04T11:36:07.417Z,10.10
2019-01-04T11:39:12.688Z,8.83
2019-01-04T11:42:47.630Z,11.77
2019-01-04T11:46:17.256Z,6.87
2019-01-04T11:50:03.613Z,13.03
2019-01-04T11:52:55.754Z,12.73
2019-01-04T11:55:29.234Z,12.57
2019-01-04T11:58:02.763Z,11.30
2019-01-04T12:00:36.494Z,22.90
2019-01-04T12:03:11.253Z,26.60
2019-01-04T12:05:45.374Z,25.77
2019-01-04T12:08:18.941Z,15.30
2019-01-04T12:10:53.640Z,13.37
2019-01-04T12:13:26.800Z,13.83
2019-01-04T12:16:00.231Z,13.00
2019-01-04T12:18:34.742Z,9.27
2019-01-04T12:21:09.804Z,17.50
2019-01-04T12:23:44.861Z,20.17
2019-01-04T12:26:18.985Z,20.80
2019-01-04T12:28:52.433Z,16.10
2019-01-04T12:31:25.914Z,17.43
2019-01-04T12:33:59.457Z,15.17
2019-01-04T12:36:32.878Z,28.90
2019-01-04T12:39:08.430Z,42.07
2019-01-04T12:41:41.779Z,33.80
2019-01-04T12:44:16.167Z,22.50
2019-01-04T12:46:49.686Z,20.33
2019-01-04T12:49:23.137Z,26.17
2019-01-04T12:51:56.556Z,43.63
2019-01-04T12:54:31.069Z,24.37
2019-01-04T12:57:04.336Z,18.30
2019-01-04T12:59:38.804Z,14.97
2019-01-04T13:02:13.044Z,11.73
2019-01-04T13:04:46.733Z,12.60
2019-01-04T13:07:20.013Z,19.27
2019-01-04T13:09:53.854Z,19.30
2019-01-04T13:12:28.113Z,20.33
2019-01-04T13:15:01.715Z,30.40
2019-01-04T13:17:37.044Z,27.37
2019-01-04T13:20:13.408Z,28.10
2019-01-04T13:22:48.575Z,27.40
2019-01-04T13:25:23.432Z,78.43
2019-01-04T13:27:56.935Z,37.90
2019-01-04T13:30:30.771Z,36.17
2019-01-04T13:33:04.370Z,20.53
2019-01-04T13:35:38.740Z,26.37
2019-01-04T13:38:12.660Z,24.70
2019-01-04T13:40:46.270Z,15.03
2019-01-04T13:43:20.077Z,26.93
2019-01-04T13:45:54.063Z,32.63
2019-01-04T13:48:27.731Z,25.77
2019-01-04T13:51:01.134Z,15.30
2019-01-04T13:53:35.964Z,30.63
2019-01-04T13:56:09.495Z,31.23
2019-01-04T13:58:42.921Z,41.77
2019-01-04T14:01:16.242Z,21.47
2019-01-04T14:03:49.734Z,40.97
2019-01-04T14:06:24.341Z,30.03
2019-01-04T14:08:58.074Z,69.10
2019-01-04T14:11:31.608Z,34.23
2019-01-04T14:14:05.627Z,22.00
2019-01-04T14:16:39.211Z,17.97
2019-01-04T14:19:12.594Z,38.60
2019-01-04T14:21:46.011Z,21.00
2019-01-04T14:24:19.381Z,57.60
2019-01-04T14:26:52.869Z,27.00
2019-01-04T14:29:26.340Z,30.27
2019-01-04T14:31:59.560Z,16.93
2019-01-04T14:34:33.189Z,27.97
2019-01-04T14:37:07.165Z,27.43
2019-01-04T14:39:42.815Z,24.63
2019-01-04T14:42:16.375Z,27.47
2019-01-04T14:44:50.427Z,31.87
2019-01-04T14:47:26.663Z,89.77
2019-01-04T14:50:00.160Z,20.80
2019-01-04T14:52:33.707Z,24.90
2019-01-04T14:55:07.393Z,22.77
2019-01-04T14:57:40.684Z,15.43
2019-01-04T15:00:16.339Z,22.47
2019-01-04T15:02:50.907Z,16.77
2019-01-04T15:05:24.629Z,10.13
2019-01-04T15:07:58.683Z,16.17
2019-01-04T15:10:32.284Z,16.67
2019-01-04T15:13:05.942Z,14.53
2019-01-04T15:15:40.387Z,24.63
2019-01-04T15:18:13.904Z,24.33
2019-01-04T15:20:47.615Z,22.10
2019-01-04T15:23:21.433Z,13.90
2019-01-04T15:25:55.095Z,17.23
2019-01-04T15:28:28.394Z,16.70
2019-01-04T15:31:01.864Z,16.37
2019-01-04T15:33:35.379Z,15.50
2019-01-04T15:36:09.294Z,15.00
2019-01-04T15:38:45.005Z,13.50
2019-01-04T15:41:18.744Z,15.33
2019-01-04T15:43:52.384Z,17.20
2019-01-04T15:46:26.618Z,13.27
2019-01-04T15:49:00.239Z,13.60
2019-01-04T15:51:33.930Z,9.73
2019-01-04T15:54:07.995Z,14.70
2019-01-04T15:56:42.001Z,16.13
2019-01-04T15:59:15.876Z,19.63
2019-01-04T16:01:50.038Z,20.07
2019-01-04T16:04:24.117Z,18.00
2019-01-04T16:06:58.393Z,15.23
2019-01-04T16:09:33.287Z,15.83
2019-01-04T16:12:07.067Z,16.23
2019-01-04T16:14:41.102Z,15.53
2019-01-04T16:17:15.297Z,18.30
2019-01-04T16:19:49.147Z,17.10
2019-01-04T16:22:23.112Z,13.50
2019-01-04T16:24:57.194Z,13.67
2019-01-04T16:27:31.004Z,10.37
2019-01-04T16:30:06.567Z,33.47
2019-01-04T16:32:40.549Z,10.77
2019-01-04T16:35:14.356Z,9.43
2019-01-04T16:37:48.267Z,15.83
2019-01-04T16:40:22.128Z,8.20
2019-01-04T16:42:56.279Z,18.23
2019-01-04T16:45:30.875Z,10.10
2019-01-04T16:48:04.538Z,10.73
2019-01-04T16:50:38.427Z,14.60
2019-01-04T16:53:12.309Z,18.23
2019-01-04T16:55:47.467Z,11.57
2019-01-04T16:58:21.504Z,10.57
2019-01-04T17:00:55.164Z,12.70
2019-01-04T17:03:28.847Z,11.93
2019-01-04T17:06:03.134Z,10.47
2019-01-04T17:08:38.888Z,10.33
2019-01-04T17:11:13.217Z,10.00
2019-01-04T17:13:46.864Z,11.57
2019-01-04T17:16:21.256Z,13.90
2019-01-04T17:18:55.186Z,16.07
2019-01-04T17:21:30.568Z,14.30
2019-01-04T17:24:04.963Z,24.83
2019-01-04T17:26:39.107Z,21.23
2019-01-04T17:29:13.081Z,15.50
2019-01-04T17:31:46.987Z,19.97
2019-01-04T17:34:20.858Z,15.67
2019-01-04T17:36:55.908Z,15.67
2019-01-04T17:39:29.823Z,13.13
2019-01-04T17:42:03.887Z,9.83
2019-01-04T17:44:37.789Z,13.20
2019-01-04T17:47:11.840Z,10.97
2019-01-04T17:49:45.855Z,12.43
2019-01-04T17:52:19.707Z,11.10
2019-01-04T17:54:53.642Z,13.27
2019-01-04T17:57:27.884Z,10.57
2019-01-04T18:00:01.913Z,9.57
2019-01-04T18:02:36.195Z,13.80
2019-01-04T18:05:10.228Z,9.10
2019-01-04T18:07:44.605Z,10.20
2019-01-04T18:10:18.475Z,17.13
2019-01-04T18:12:52.467Z,12.57
2019-01-04T18:15:26.634Z,17.93
2019-01-04T18:18:00.754Z,10.80
2019-01-04T18:20:35.056Z,17.70
2019-01-04T18:23:09.404Z,15.50
2019-01-04T18:25:43.629Z,51.47
2019-01-04T18:28:17.885Z,14.85
2019-01-04T18:30:51.916Z,11.53
2019-01-04T18:33:26.214Z,11.53
2019-01-04T18:36:00.984Z,14.57
2019-01-04T18:38:35.029Z,34.30
2019-01-04T18:41:09.307Z,14.23
2019-01-04T18:43:43.728Z,18.93
2019-01-04T18:46:18.283Z,44.80
2019-01-04T18:48:53.706Z,16.03
2019-01-04T18:51:27.797Z,12.33
2019-01-04T18:54:01.953Z,15.63
2019-01-04T18:56:35.997Z,11.27
2019-01-04T18:59:10.984Z,10.77
2019-01-04T19:01:45.478Z,9.37
2019-01-04T19:04:19.707Z,10.03
2019-01-04T19:06:54.494Z,10.17
2019-01-04T19:09:29.453Z,9.80
2019-01-04T19:12:03.403Z,11.37
2019-01-04T19:14:39.227Z,8.60
2019-01-04T19:17:13.868Z,8.37
2019-01-04T19:19:48.254Z,8.17
2019-01-04T19:22:22.858Z,9.37
2019-01-04T19:24:56.907Z,11.67
2019-01-04T19:27:32.062Z,10.83
2019-01-04T19:30:06.694Z,9.27
2019-01-04T19:32:41.127Z,10.53
2019-01-04T19:35:15.427Z,8.00
2019-01-04T19:37:49.666Z,9.50
2019-01-04T19:40:24.037Z,11.27
2019-01-04T19:42:59.587Z,9.97
2019-01-04T19:45:34.027Z,8.13
2019-01-04T19:48:08.869Z,9.00
2019-01-04T19:50:43.645Z,8.40
2019-01-04T19:53:18.129Z,7.50
2019-01-04T19:55:52.346Z,9.83
2019-01-04T19:58:27.036Z,8.60
2019-01-04T20:01:01.785Z,10.73
2019-01-04T20:03:36.538Z,8.10
2019-01-04T20:07:20.687Z,10.23
2019-01-04T20:11:13.783Z,9.00
2019-01-04T20:15:07.565Z,9.03
2019-01-04T20:18:03.795Z,7.50
2019-01-04T20:21:01.497Z,10.70
2019-01-04T20:24:00.539Z,8.33
2019-01-04T20:26:53.646Z,9.70
2019-01-04T20:29:58.955Z,8.37
2019-01-04T20:33:07.624Z,9.00
2019-01-04T20:36:11.595Z,9.07
2019-01-04T20:39:04.548Z,9.60
2019-01-04T20:41:56.267Z,9.93
2019-01-04T20:44:49.335Z,9.87
2019-01-04T20:47:40.954Z,9.57
2019-01-04T20:50:34.055Z,9.93
2019-01-04T20:53:30.874Z,10.40
2019-01-04T20:56:36.014Z,10.63
2019-01-04T20:59:27.463Z,9.87
2019-01-04T21:02:21.964Z,11.17
2019-01-04T21:05:13.847Z,9.13
2019-01-04T21:08:26.387Z,9.23
2019-01-04T21:11:19.488Z,10.37
2019-01-04T21:14:10.944Z,8.57
2019-01-04T21:17:13.554Z,6.77
2019-01-04T21:20:17.944Z,7.67
2019-01-04T21:23:26.797Z,6.53
2019-01-04T21:26:20.360Z,5.53
2019-01-04T21:29:16.364Z,6.73
2019-01-04T21:32:15.544Z,5.63
2019-01-04T21:35:08.001Z,5.13
2019-01-04T21:38:09.966Z,5.93
2019-01-04T21:40:57.671Z,5.63
2019-01-04T21:43:46.691Z,4.40
2019-01-04T21:46:48.603Z,4.77
2019-01-04T21:49:40.274Z,4.60
2019-01-04T21:52:23.737Z,5.23
2019-01-04T21:55:16.477Z,5.43
2019-01-04T21:58:07.543Z,5.57
2019-01-04T22:00:55.631Z,5.03
2019-01-04T22:03:51.624Z,5.83
2019-01-04T22:06:56.693Z,4.57
2019-01-04T22:09:45.388Z,6.13
2019-01-04T22:12:36.760Z,5.60
2019-01-04T22:15:35.612Z,7.07
2019-01-04T22:18:43.627Z,5.40
2019-01-04T22:21:36.052Z,3.97
2019-01-04T22:24:34.488Z,4.50
2019-01-04T22:27:39.223Z,4.37
2019-01-04T22:30:34.683Z,4.00
2019-01-04T22:33:38.953Z,3.87
2019-01-04T22:36:34.258Z,3.77
2019-01-04T22:39:28.223Z,3.73
2019-01-04T22:42:29.142Z,4.20
2019-01-04T22:45:21.165Z,4.57
2019-01-04T22:48:25.330Z,4.50
2019-01-04T22:51:20.431Z,4.43
2019-01-04T22:54:12.218Z,4.13
2019-01-04T22:57:04.057Z,4.50
2019-01-04T23:00:04.337Z,4.10
2019-01-04T23:02:56.458Z,4.53
2019-01-04T23:05:57.964Z,4.40
2019-01-04T23:08:56.852Z,4.60
2019-01-04T23:11:52.067Z,4.73
2019-01-04T23:14:48.415Z,4.43
2019-01-04T23:17:43.821Z,5.23
2019-01-04T23:20:35.855Z,5.17
2019-01-04T23:23:27.904Z,5.10
2019-01-04T23:26:19.502Z,5.47
2019-01-04T23:29:27.503Z,5.90
2019-01-04T23:32:12.438Z,5.13
2019-01-04T23:35:07.627Z,5.67
2019-01-04T23:38:03.725Z,5.40
2019-01-04T23:40:56.054Z,5.67
2019-01-04T23:44:00.423Z,5.63
2019-01-04T23:46:51.186Z,4.40
2019-01-04T23:49:47.592Z,5.33
2019-01-04T23:52:44.573Z,4.23
2019-01-04T23:55:35.502Z,4.80
2019-01-04T23:58:35.110Z,5.23
